sensor_id;sensor_type;location;lat;lon;timestamp;pressure;altitude;pressure_sealevel;temperature;humidity
36726;BME280;44936;52.086;5.150;2023-10-08T00:00:23;103003.00;;;19.51;100.00
36726;BME280;44936;52.086;5.150;2023-10-08T00:03:07;103012.78;;;19.58;100.00
36726;BME280;44936;52.086;5.150;2023-10-08T00:05:36;103012.78;;;19.58;100.00
36726;BME280;44936;52.086;5.150;2023-10-08T00:08:22;103056.28;;;19.68;100.00
36726;BME280;44936;52.086;5.150;2023-10-08T00:11:13;103010.09;;;19.29;100.00
36726;BME280;44936;52.086;5.150;2023-10-08T00:13:41;103015.44;;;19.44;100.00
36726;BME280;44936;52.086;5.150;2023-10-08T00:16:11;103044.75;;;19.58;100.00
36726;BME280;44936;52.086;5.150;2023-10-08T00:18:41;103059.84;;;19.67;100.00
36726;BME280;44936;52.086;5.150;2023-10-08T00:21:13;102985.22;;;19.25;100.00
36726;BME280;44936;52.086;5.150;2023-10-08T00:23:38;103010.97;;;19.40;100.00
36726;BME280;44936;52.086;5.150;2023-10-08T00:26:13;103062.47;;;19.70;100.00
36726;BME280;44936;52.086;5.150;2023-10-08T00:28:43;103015.41;;;19.41;100.00
36726;BME280;44936;52.086;5.150;2023-10-08T00:31:13;103052.72;;;19.66;100.00
36726;BME280;44936;52.086;5.150;2023-10-08T00:33:42;103028.72;;;19.49;100.00
36726;BME280;44936;52.086;5.150;2023-10-08T00:36:12;103019.91;;;19.58;100.00
36726;BME280;44936;52.086;5.150;2023-10-08T00:38:48;103003.88;;;19.41;100.00
36726;BME280;44936;52.086;5.150;2023-10-08T00:41:22;103040.31;;;19.74;100.00
36726;BME280;44936;52.086;5.150;2023-10-08T00:43:58;103016.34;;;19.66;100.00
36726;BME280;44936;52.086;5.150;2023-10-08T00:46:26;103032.34;;;19.80;100.00
36726;BME280;44936;52.086;5.150;2023-10-08T00:49:01;103019.00;;;19.69;100.00
36726;BME280;44936;52.086;5.150;2023-10-08T00:51:48;102972.81;;;19.43;100.00
36726;BME280;44936;52.086;5.150;2023-10-08T00:54:27;102966.63;;;19.51;100.00
36726;BME280;44936;52.086;5.150;2023-10-08T00:56:56;103022.56;;;19.88;100.00
36726;BME280;44936;52.086;5.150;2023-10-08T00:59:30;102973.75;;;19.65;100.00
36726;BME280;44936;52.086;5.150;2023-10-08T01:02:34;103019.00;;;19.86;100.00
36726;BME280;44936;52.086;5.150;2023-10-08T01:05:37;103026.09;;;19.87;100.00
36726;BME280;44936;52.086;5.150;2023-10-08T01:08:08;103034.97;;;19.83;100.00
36726;BME280;44936;52.086;5.150;2023-10-08T01:10:35;103004.81;;;19.57;100.00
36726;BME280;44936;52.086;5.150;2023-10-08T01:13:04;102987.94;;;19.53;100.00
36726;BME280;44936;52.086;5.150;2023-10-08T01:15:30;103002.13;;;19.69;100.00
36726;BME280;44936;52.086;5.150;2023-10-08T01:17:57;103011.00;;;19.75;100.00
36726;BME280;44936;52.086;5.150;2023-10-08T01:20:29;103023.47;;;19.72;100.00
36726;BME280;44936;52.086;5.150;2023-10-08T01:23:07;102979.97;;;19.56;100.00
36726;BME280;44936;52.086;5.150;2023-10-08T01:25:45;103020.78;;;19.67;100.00
36726;BME280;44936;52.086;5.150;2023-10-08T01:28:19;103000.34;;;19.56;100.00
36726;BME280;44936;52.086;5.150;2023-10-08T01:30:52;103019.00;;;19.66;100.00
36726;BME280;44936;52.086;5.150;2023-10-08T01:33:23;103028.75;;;19.61;100.00
36726;BME280;44936;52.086;5.150;2023-10-08T01:35:53;103036.75;;;19.66;100.00
36726;BME280;44936;52.086;5.150;2023-10-08T01:38:18;102998.56;;;19.48;100.00
36726;BME280;44936;52.086;5.150;2023-10-08T01:41:04;103011.00;;;19.54;100.00
36726;BME280;44936;52.086;5.150;2023-10-08T01:43:41;103018.09;;;19.55;100.00
36726;BME280;44936;52.086;5.150;2023-10-08T01:46:07;102999.44;;;19.43;100.00
36726;BME280;44936;52.086;5.150;2023-10-08T01:48:36;103022.53;;;19.48;100.00
36726;BME280;44936;52.086;5.150;2023-10-08T01:51:22;103047.41;;;19.58;100.00
36726;BME280;44936;52.086;5.150;2023-10-08T01:53:54;103034.94;;;19.45;100.00
36726;BME280;44936;52.086;5.150;2023-10-08T01:56:23;103056.28;;;19.59;100.00
36726;BME280;44936;52.086;5.150;2023-10-08T01:58:49;103067.81;;;19.61;100.00
36726;BME280;44936;52.086;5.150;2023-10-08T02:01:19;103081.13;;;19.58;100.00
36726;BME280;44936;52.086;5.150;2023-10-08T02:03:46;103033.13;;;19.25;100.00
36726;BME280;44936;52.086;5.150;2023-10-08T02:06:11;103097.09;;;19.56;100.00
36726;BME280;44936;52.086;5.150;2023-10-08T02:08:37;103089.13;;;19.62;100.00
36726;BME280;44936;52.086;5.150;2023-10-08T02:11:03;103049.13;;;19.39;100.00
36726;BME280;44936;52.086;5.150;2023-10-08T02:13:31;103086.38;;;19.39;100.00
36726;BME280;44936;52.086;5.150;2023-10-08T02:16:00;103107.75;;;19.56;100.00
36726;BME280;44936;52.086;5.150;2023-10-08T02:18:25;103094.38;;;19.47;100.00
36726;BME280;44936;52.086;5.150;2023-10-08T02:20:51;103050.84;;;19.25;100.00
36726;BME280;44936;52.086;5.150;2023-10-08T02:23:19;103049.16;;;19.44;100.00
36726;BME280;44936;52.086;5.150;2023-10-08T02:25:48;103066.00;;;19.49;100.00
36726;BME280;44936;52.086;5.150;2023-10-08T02:28:16;103040.25;;;19.40;100.00
36726;BME280;44936;52.086;5.150;2023-10-08T02:30:45;103067.81;;;19.58;100.00
36726;BME280;44936;52.086;5.150;2023-10-08T02:33:11;103102.38;;;19.47;100.00
36726;BME280;44936;52.086;5.150;2023-10-08T02:35:49;103088.16;;;19.51;100.00
36726;BME280;44936;52.086;5.150;2023-10-08T02:38:18;103073.06;;;19.42;100.00
36726;BME280;44936;52.086;5.150;2023-10-08T02:40:46;103066.00;;;19.37;100.00
36726;BME280;44936;52.086;5.150;2023-10-08T02:43:15;103068.66;;;19.50;100.00
36726;BME280;44936;52.086;5.150;2023-10-08T02:45:44;103051.78;;;19.42;100.00
36726;BME280;44936;52.086;5.150;2023-10-08T02:48:30;103057.97;;;19.32;100.00
36726;BME280;44936;52.086;5.150;2023-10-08T02:50:56;103092.59;;;19.50;100.00
36726;BME280;44936;52.086;5.150;2023-10-08T02:53:35;103096.19;;;19.52;100.00
36726;BME280;44936;52.086;5.150;2023-10-08T02:56:00;103097.03;;;19.50;100.00
36726;BME280;44936;52.086;5.150;2023-10-08T02:58:25;103072.19;;;19.48;100.00
36726;BME280;44936;52.086;5.150;2023-10-08T03:00:53;103062.44;;;19.45;100.00
36726;BME280;44936;52.086;5.150;2023-10-08T03:03:19;103053.53;;;19.34;100.00
36726;BME280;44936;52.086;5.150;2023-10-08T03:05:53;103101.47;;;19.46;100.00
36726;BME280;44936;52.086;5.150;2023-10-08T03:08:22;103093.50;;;19.48;100.00
36726;BME280;44936;52.086;5.150;2023-10-08T03:10:49;103088.16;;;19.42;100.00
36726;BME280;44936;52.086;5.150;2023-10-08T03:13:21;103095.28;;;19.44;100.00
36726;BME280;44936;52.086;5.150;2023-10-08T03:15:46;103109.47;;;19.46;100.00
36726;BME280;44936;52.086;5.150;2023-10-08T03:18:22;103095.28;;;19.44;100.00
36726;BME280;44936;52.086;5.150;2023-10-08T03:20:49;103089.03;;;19.41;100.00
36726;BME280;44936;52.086;5.150;2023-10-08T03:23:16;103084.59;;;19.43;100.00
36726;BME280;44936;52.086;5.150;2023-10-08T03:25:53;103054.41;;;19.25;100.00
36726;BME280;44936;52.086;5.150;2023-10-08T03:28:37;103077.50;;;19.40;100.00
36726;BME280;44936;52.086;5.150;2023-10-08T03:31:06;103053.53;;;19.22;100.00
36726;BME280;44936;52.086;5.150;2023-10-08T03:33:39;103071.31;;;19.35;100.00
36726;BME280;44936;52.086;5.150;2023-10-08T03:36:31;103085.50;;;19.37;100.00
36726;BME280;44936;52.086;5.150;2023-10-08T03:38:59;103113.88;;;19.38;100.00
36726;BME280;44936;52.086;5.150;2023-10-08T03:41:35;103126.28;;;19.33;100.00
36726;BME280;44936;52.086;5.150;2023-10-08T03:44:05;103129.78;;;19.20;100.00
36726;BME280;44936;52.086;5.150;2023-10-08T03:46:32;103126.25;;;19.21;100.00
36726;BME280;44936;52.086;5.150;2023-10-08T03:49:07;103138.69;;;19.28;100.00
36726;BME280;44936;52.086;5.150;2023-10-08T03:51:40;103122.69;;;19.25;100.00
36726;BME280;44936;52.086;5.150;2023-10-08T03:54:08;103103.16;;;19.15;100.00
36726;BME280;44936;52.086;5.150;2023-10-08T03:56:40;103144.03;;;19.37;100.00
36726;BME280;44936;52.086;5.150;2023-10-08T03:59:13;103138.66;;;19.25;100.00
36726;BME280;44936;52.086;5.150;2023-10-08T04:01:41;103106.69;;;19.07;100.00
36726;BME280;44936;52.086;5.150;2023-10-08T04:04:07;103139.53;;;19.24;100.00
36726;BME280;44936;52.086;5.150;2023-10-08T04:06:38;103138.66;;;19.25;100.00
36726;BME280;44936;52.086;5.150;2023-10-08T04:09:04;103167.00;;;19.17;100.00
36726;BME280;44936;52.086;5.150;2023-10-08T04:11:33;103183.91;;;19.22;100.00
36726;BME280;44936;52.086;5.150;2023-10-08T04:14:02;103177.72;;;19.28;100.00
36726;BME280;44936;52.086;5.150;2023-10-08T04:16:32;103166.13;;;19.12;100.00
36726;BME280;44936;52.086;5.150;2023-10-08T04:19:04;103180.34;;;19.21;100.00
36726;BME280;44936;52.086;5.150;2023-10-08T04:21:29;103137.59;;;18.80;100.00
36726;BME280;44936;52.086;5.150;2023-10-08T04:23:55;103136.72;;;18.84;100.00
36726;BME280;44936;52.086;5.150;2023-10-08T04:26:23;103161.69;;;19.12;100.00
36726;BME280;44936;52.086;5.150;2023-10-08T04:28:56;103186.56;;;19.22;100.00
36726;BME280;44936;52.086;5.150;2023-10-08T04:31:28;103171.25;;;18.81;100.00
36726;BME280;44936;52.086;5.150;2023-10-08T04:34:10;103176.78;;;19.18;100.00
36726;BME280;44936;52.086;5.150;2023-10-08T04:36:44;103125.28;;;19.02;100.00
36726;BME280;44936;52.086;5.150;2023-10-08T04:39:11;103160.00;;;19.37;100.00
36726;BME280;44936;52.086;5.150;2023-10-08T04:41:42;103173.28;;;19.34;100.00
36726;BME280;44936;52.086;5.150;2023-10-08T04:44:11;103158.22;;;19.33;100.00
36726;BME280;44936;52.086;5.150;2023-10-08T04:46:44;103175.06;;;19.32;100.00
36726;BME280;44936;52.086;5.150;2023-10-08T04:49:17;103138.66;;;19.25;100.00
36726;BME280;44936;52.086;5.150;2023-10-08T04:52:11;103175.06;;;19.28;100.00
36726;BME280;44936;52.086;5.150;2023-10-08T04:54:41;103136.84;;;19.09;100.00
36726;BME280;44936;52.086;5.150;2023-10-08T04:57:27;103141.22;;;18.91;100.00
36726;BME280;44936;52.086;5.150;2023-10-08T04:59:55;103150.13;;;19.04;100.00
36726;BME280;44936;52.086;5.150;2023-10-08T05:02:22;103214.94;;;19.20;100.00
36726;BME280;44936;52.086;5.150;2023-10-08T05:05:14;103209.56;;;19.14;100.00
36726;BME280;44936;52.086;5.150;2023-10-08T05:07:39;103205.13;;;19.08;100.00
36726;BME280;44936;52.086;5.150;2023-10-08T05:10:11;103206.91;;;19.12;100.00
36726;BME280;44936;52.086;5.150;2023-10-08T05:12:51;103195.38;;;19.15;100.00
36726;BME280;44936;52.086;5.150;2023-10-08T05:15:29;103191.88;;;19.22;100.00
36726;BME280;44936;52.086;5.150;2023-10-08T05:18:12;103204.22;;;19.08;100.00
36726;BME280;44936;52.086;5.150;2023-10-08T05:20:50;103175.75;;;18.88;100.00
36726;BME280;44936;52.086;5.150;2023-10-08T05:23:17;103199.66;;;18.84;100.00
36726;BME280;44936;52.086;5.150;2023-10-08T05:25:50;103166.81;;;18.77;100.00
36726;BME280;44936;52.086;5.150;2023-10-08T05:28:30;103209.50;;;19.00;100.00
36726;BME280;44936;52.086;5.150;2023-10-08T05:31:07;103194.31;;;18.79;100.00
36726;BME280;44936;52.086;5.150;2023-10-08T05:33:42;103196.13;;;18.83;100.00
36726;BME280;44936;52.086;5.150;2023-10-08T05:36:29;103196.94;;;18.76;100.00
36726;BME280;44936;52.086;5.150;2023-10-08T05:39:18;103192.31;;;18.51;100.00
36726;BME280;44936;52.086;5.150;2023-10-08T05:41:49;103202.03;;;18.50;100.00
36726;BME280;44936;52.086;5.150;2023-10-08T05:44:30;103214.44;;;18.50;100.00
36726;BME280;44936;52.086;5.150;2023-10-08T05:47:04;103173.50;;;18.25;100.00
36726;BME280;44936;52.086;5.150;2023-10-08T05:49:52;103185.03;;;18.27;100.00
36726;BME280;44936;52.086;5.150;2023-10-08T05:52:35;103214.22;;;18.24;100.00
36726;BME280;44936;52.086;5.150;2023-10-08T05:55:16;103224.78;;;18.16;100.00
36726;BME280;44936;52.086;5.150;2023-10-08T05:58:05;103223.09;;;18.27;100.00
36726;BME280;44936;52.086;5.150;2023-10-08T06:00:45;103210.59;;;18.11;100.00
36726;BME280;44936;52.086;5.150;2023-10-08T06:03:29;103208.84;;;18.15;100.00
36726;BME280;44936;52.086;5.150;2023-10-08T06:06:07;103206.97;;;18.06;100.00
36726;BME280;44936;52.086;5.150;2023-10-08T06:08:42;103159.75;;;17.73;100.00
36726;BME280;44936;52.086;5.150;2023-10-08T06:11:16;103190.03;;;17.93;100.00
36726;BME280;44936;52.086;5.150;2023-10-08T06:14:07;103202.28;;;17.77;100.00
36726;BME280;44936;52.086;5.150;2023-10-08T06:16:44;103252.09;;;18.03;100.00
36726;BME280;44936;52.086;5.150;2023-10-08T06:19:12;103253.66;;;17.84;100.00
36726;BME280;44936;52.086;5.150;2023-10-08T06:21:42;103259.53;;;17.60;100.00
36726;BME280;44936;52.086;5.150;2023-10-08T06:24:08;103268.66;;;17.80;100.00
36726;BME280;44936;52.086;5.150;2023-10-08T06:26:40;103262.31;;;17.69;100.00
36726;BME280;44936;52.086;5.150;2023-10-08T06:29:10;103219.56;;;17.48;100.00
36726;BME280;44936;52.086;5.150;2023-10-08T06:31:46;103236.44;;;17.51;100.00
36726;BME280;44936;52.086;5.150;2023-10-08T06:34:17;103281.91;;;17.79;100.00
36726;BME280;44936;52.086;5.150;2023-10-08T06:36:47;103275.66;;;17.75;100.00
36726;BME280;44936;52.086;5.150;2023-10-08T06:39:12;103238.00;;;17.36;100.00
36726;BME280;44936;52.086;5.150;2023-10-08T06:41:45;103256.69;;;17.45;100.00
36726;BME280;44936;52.086;5.150;2023-10-08T06:44:11;103220.13;;;17.22;100.00
36726;BME280;44936;52.086;5.150;2023-10-08T06:46:39;103249.63;;;17.45;100.00
36726;BME280;44936;52.086;5.150;2023-10-08T06:49:07;103256.81;;;17.55;100.00
36726;BME280;44936;52.086;5.150;2023-10-08T06:51:37;103273.50;;;17.47;100.00
36726;BME280;44936;52.086;5.150;2023-10-08T06:54:03;103282.41;;;17.50;100.00
36726;BME280;44936;52.086;5.150;2023-10-08T06:56:29;103272.69;;;17.51;100.00
36726;BME280;44936;52.086;5.150;2023-10-08T06:58:56;103251.28;;;17.39;100.00
36726;BME280;44936;52.086;5.150;2023-10-08T07:01:24;103279.88;;;17.60;100.00
36726;BME280;44936;52.086;5.150;2023-10-08T07:03:56;103284.31;;;17.62;100.00
36726;BME280;44936;52.086;5.150;2023-10-08T07:06:32;103255.81;;;17.46;100.00
36726;BME280;44936;52.086;5.150;2023-10-08T07:09:20;103262.72;;;17.32;100.00
36726;BME280;44936;52.086;5.150;2023-10-08T07:11:57;103272.34;;;17.26;100.00
36726;BME280;44936;52.086;5.150;2023-10-08T07:14:28;103291.97;;;17.38;100.00
36726;BME280;44936;52.086;5.150;2023-10-08T07:16:58;103286.88;;;17.53;100.00
36726;BME280;44936;52.086;5.150;2023-10-08T07:19:27;103237.00;;;17.26;100.00
36726;BME280;44936;52.086;5.150;2023-10-08T07:22:03;103262.72;;;17.33;100.00
36726;BME280;44936;52.086;5.150;2023-10-08T07:24:31;103269.09;;;17.47;100.00
36726;BME280;44936;52.086;5.150;2023-10-08T07:27:01;103251.03;;;17.19;100.00
36726;BME280;44936;52.086;5.150;2023-10-08T07:29:31;103269.22;;;17.56;100.00
36726;BME280;44936;52.086;5.150;2023-10-08T07:31:58;103284.34;;;17.65;100.00
36726;BME280;44936;52.086;5.150;2023-10-08T07:34:34;103282.44;;;17.52;100.00
36726;BME280;44936;52.086;5.150;2023-10-08T07:37:00;103262.19;;;17.59;100.00
36726;BME280;44936;52.086;5.150;2023-10-08T07:39:26;103291.66;;;17.78;100.00
36726;BME280;44936;52.086;5.150;2023-10-08T07:42:02;103255.19;;;17.67;100.00
36726;BME280;44936;52.086;5.150;2023-10-08T07:44:30;103240.06;;;17.58;100.00
36726;BME280;44936;52.086;5.150;2023-10-08T07:46:56;103274.94;;;17.86;100.00
36726;BME280;44936;52.086;5.150;2023-10-08T07:49:25;103270.44;;;17.80;100.00
36726;BME280;44936;52.086;5.150;2023-10-08T07:51:57;103290.97;;;17.95;100.00
36726;BME280;44936;52.086;5.150;2023-10-08T07:54:24;103280.09;;;17.75;100.00
36726;BME280;44936;52.086;5.150;2023-10-08T07:56:55;103220.34;;;17.39;100.00
36726;BME280;44936;52.086;5.150;2023-10-08T07:59:38;103307.72;;;17.91;100.00
36726;BME280;44936;52.086;5.150;2023-10-08T08:02:08;103292.53;;;17.79;100.00
36726;BME280;44936;52.086;5.150;2023-10-08T08:04:40;103278.03;;;17.54;100.00
36726;BME280;44936;52.086;5.150;2023-10-08T08:07:07;103319.09;;;17.79;100.00
36726;BME280;44936;52.086;5.150;2023-10-08T08:09:33;103286.25;;;17.72;100.00
36726;BME280;44936;52.086;5.150;2023-10-08T08:12:05;103303.88;;;17.67;100.00
36726;BME280;44936;52.086;5.150;2023-10-08T08:14:33;103316.47;;;17.82;100.00
36726;BME280;44936;52.086;5.150;2023-10-08T08:16:58;103264.06;;;17.69;100.00
36726;BME280;44936;52.086;5.150;2023-10-08T08:19:39;103304.38;;;18.10;100.00
36726;BME280;44936;52.086;5.150;2023-10-08T08:22:04;103292.06;;;18.15;100.00
36726;BME280;44936;52.086;5.150;2023-10-08T08:24:30;103275.25;;;18.19;100.00
36726;BME280;44936;52.086;5.150;2023-10-08T08:27:01;103306.59;;;18.52;100.00
36726;BME280;44936;52.086;5.150;2023-10-08T08:29:33;103306.63;;;18.55;100.00
36726;BME280;44936;52.086;5.150;2023-10-08T08:32:10;103291.44;;;18.42;100.00
36726;BME280;44936;52.086;5.150;2023-10-08T08:34:38;103325.28;;;18.60;100.00
36726;BME280;44936;52.086;5.150;2023-10-08T08:37:03;103265.69;;;18.33;100.00
36726;BME280;44936;52.086;5.150;2023-10-08T08:39:28;103291.25;;;18.22;100.00
36726;BME280;44936;52.086;5.150;2023-10-08T08:42:03;103345.44;;;18.38;100.00
36726;BME280;44936;52.086;5.150;2023-10-08T08:44:34;103325.19;;;18.49;100.00
36726;BME280;44936;52.086;5.150;2023-10-08T08:47:01;103331.28;;;18.40;100.00
36726;BME280;44936;52.086;5.150;2023-10-08T08:49:33;103329.53;;;18.43;100.00
36726;BME280;44936;52.086;5.150;2023-10-08T08:52:00;103326.81;;;18.36;100.00
36726;BME280;44936;52.086;5.150;2023-10-08T08:54:27;103297.47;;;18.27;100.00
36726;BME280;44936;52.086;5.150;2023-10-08T08:56:56;103346.34;;;18.42;100.00
36726;BME280;44936;52.086;5.150;2023-10-08T08:59:23;103342.75;;;18.36;100.00
36726;BME280;44936;52.086;5.150;2023-10-08T09:01:49;103336.63;;;18.44;100.00
36726;BME280;44936;52.086;5.150;2023-10-08T09:04:16;103324.31;;;18.52;100.00
36726;BME280;44936;52.086;5.150;2023-10-08T09:06:42;103301.19;;;18.45;100.00
36726;BME280;44936;52.086;5.150;2023-10-08T09:09:09;103312.53;;;18.27;100.00
36726;BME280;44936;52.086;5.150;2023-10-08T09:11:51;103323.41;;;18.51;100.00
36726;BME280;44936;52.086;5.150;2023-10-08T09:14:24;103317.41;;;18.66;100.00
36726;BME280;44936;52.086;5.150;2023-10-08T09:16:53;103293.47;;;18.67;100.00
36726;BME280;44936;52.086;5.150;2023-10-08T09:19:23;103298.03;;;18.84;100.00
36726;BME280;44936;52.086;5.150;2023-10-08T09:22:04;103291.63;;;18.63;100.00
36726;BME280;44936;52.086;5.150;2023-10-08T09:24:34;103271.44;;;18.82;100.00
36726;BME280;44936;52.086;5.150;2023-10-08T09:27:08;103293.81;;;19.16;100.00
36726;BME280;44936;52.086;5.150;2023-10-08T09:29:35;103296.47;;;19.16;100.00
36726;BME280;44936;52.086;5.150;2023-10-08T09:32:09;103246.84;;;19.20;100.00
36726;BME280;44936;52.086;5.150;2023-10-08T09:34:36;103278.13;;;19.58;100.00
36726;BME280;44936;52.086;5.150;2023-10-08T09:37:02;103268.25;;;19.43;100.00
36726;BME280;44936;52.086;5.150;2023-10-08T09:39:29;103246.00;;;19.27;100.00
36726;BME280;44936;52.086;5.150;2023-10-08T09:42:02;103308.44;;;19.95;100.00
36726;BME280;44936;52.086;5.150;2023-10-08T09:44:28;103214.09;;;19.29;100.00
36726;BME280;44936;52.086;5.150;2023-10-08T09:47:02;103234.50;;;19.33;100.00
36726;BME280;44936;52.086;5.150;2023-10-08T09:49:38;103223.84;;;19.33;100.00
36726;BME280;44936;52.086;5.150;2023-10-08T09:52:06;103227.34;;;19.24;100.00
36726;BME280;44936;52.086;5.150;2023-10-08T09:54:56;103287.81;;;19.49;100.00
36726;BME280;44936;52.086;5.150;2023-10-08T09:57:24;103290.47;;;19.46;100.00
36726;BME280;44936;52.086;5.150;2023-10-08T09:59:52;103259.38;;;19.42;100.00
36726;BME280;44936;52.086;5.150;2023-10-08T10:02:19;103296.69;;;19.51;100.00
36726;BME280;44936;52.086;5.150;2023-10-08T10:04:49;103264.69;;;19.41;100.00
36726;BME280;44936;52.086;5.150;2023-10-08T10:07:16;103220.22;;;19.17;100.00
36726;BME280;44936;52.086;5.150;2023-10-08T10:09:46;103230.00;;;19.22;100.00
36726;BME280;44936;52.086;5.150;2023-10-08T10:12:19;103279.72;;;19.34;100.00
36726;BME280;44936;52.086;5.150;2023-10-08T10:14:55;103272.63;;;19.33;100.00
36726;BME280;44936;52.086;5.150;2023-10-08T10:17:26;103233.50;;;19.11;100.00
36726;BME280;44936;52.086;5.150;2023-10-08T10:19:55;103281.50;;;19.29;100.00
36726;BME280;44936;52.086;5.150;2023-10-08T10:24:54;103256.75;;;19.45;100.00
36726;BME280;44936;52.086;5.150;2023-10-08T10:27:19;103277.25;;;19.62;100.00
36726;BME280;44936;52.086;5.150;2023-10-08T10:29:45;103306.63;;;19.82;100.00
36726;BME280;44936;52.086;5.150;2023-10-08T10:32:14;103259.41;;;19.50;100.00
36726;BME280;44936;52.086;5.150;2023-10-08T10:34:43;103298.50;;;19.56;100.00
36726;BME280;44936;52.086;5.150;2023-10-08T10:37:09;103275.28;;;19.29;100.00
36726;BME280;44936;52.086;5.150;2023-10-08T10:39:54;103270.00;;;19.38;100.00
36726;BME280;44936;52.086;5.150;2023-10-08T10:42:26;103324.34;;;19.78;100.00
36726;BME280;44936;52.086;5.150;2023-10-08T10:44:54;103296.66;;;19.45;100.00
36726;BME280;44936;52.086;5.150;2023-10-08T10:47:21;103312.47;;;19.19;100.00
36726;BME280;44936;52.086;5.150;2023-10-08T10:49:50;103301.84;;;19.25;100.00
36726;BME280;44936;52.086;5.150;2023-10-08T10:52:16;103269.13;;;19.37;100.00
36726;BME280;44936;52.086;5.150;2023-10-08T10:54:54;103272.72;;;19.45;100.00
36726;BME280;44936;52.086;5.150;2023-10-08T10:57:31;103280.75;;;19.55;100.00
36726;BME280;44936;52.086;5.150;2023-10-08T11:00:07;103287.03;;;19.64;100.00
36726;BME280;44936;52.086;5.150;2023-10-08T11:03:11;103271.78;;;19.43;100.00
36726;BME280;44936;52.086;5.150;2023-10-08T11:05:51;103297.69;;;19.69;100.00
36726;BME280;44936;52.086;5.150;2023-10-08T11:08:20;103240.78;;;19.45;100.00
36726;BME280;44936;52.086;5.150;2023-10-08T11:10:49;103299.47;;;19.71;100.00
36726;BME280;44936;52.086;5.150;2023-10-08T11:13:20;103259.22;;;19.15;100.00
36726;BME280;44936;52.086;5.150;2023-10-08T11:15:50;103302.97;;;19.58;100.00
36726;BME280;44936;52.086;5.150;2023-10-08T11:18:23;103309.84;;;19.25;100.00
36726;BME280;44936;52.086;5.150;2023-10-08T11:20:51;103313.50;;;19.43;100.00
36726;BME280;44936;52.086;5.150;2023-10-08T11:23:42;103286.91;;;19.50;100.00
36726;BME280;44936;52.086;5.150;2023-10-08T11:26:08;103307.44;;;19.67;100.00
36726;BME280;44936;52.086;5.150;2023-10-08T11:28:39;103270.06;;;19.51;100.00
36726;BME280;44936;52.086;5.150;2023-10-08T11:31:10;103263.97;;;19.77;100.00
36726;BME280;44936;52.086;5.150;2023-10-08T11:33:44;103281.75;;;19.83;100.00
36726;BME280;44936;52.086;5.150;2023-10-08T11:36:19;103272.84;;;19.74;100.00
36726;BME280;44936;52.086;5.150;2023-10-08T11:39:11;103227.47;;;19.44;100.00
36726;BME280;44936;52.086;5.150;2023-10-08T11:41:39;103244.41;;;19.57;100.00
36726;BME280;44936;52.086;5.150;2023-10-08T11:44:16;103247.84;;;19.43;100.00
36726;BME280;44936;52.086;5.150;2023-10-08T11:46:45;103281.75;;;19.83;100.00
36726;BME280;44936;52.086;5.150;2023-10-08T11:49:11;103256.88;;;19.77;100.00
36726;BME280;44936;52.086;5.150;2023-10-08T11:51:44;103251.59;;;19.96;100.00
36726;BME280;44936;52.086;5.150;2023-10-08T11:54:11;103233.84;;;19.95;100.00
36726;BME280;44936;52.086;5.150;2023-10-08T11:56:37;103264.06;;;20.00;100.00
36726;BME280;44936;52.086;5.150;2023-10-08T11:59:03;103216.97;;;19.88;100.00
36726;BME280;44936;52.086;5.150;2023-10-08T12:01:36;103250.75;;;20.07;100.00
36726;BME280;44936;52.086;5.150;2023-10-08T12:04:06;103235.66;;;20.28;100.00
36726;BME280;44936;52.086;5.150;2023-10-08T12:06:41;103207.25;;;20.18;100.00
36726;BME280;44936;52.086;5.150;2023-10-08T12:09:14;103225.91;;;20.33;100.00
36726;BME280;44936;52.086;5.150;2023-10-08T12:14:48;103201.06;;;20.58;100.00
36726;BME280;44936;52.086;5.150;2023-10-08T12:17:14;103193.88;;;20.88;100.00
36726;BME280;44936;52.086;5.150;2023-10-08T12:19:45;103130.84;;;20.55;100.00
36726;BME280;44936;52.086;5.150;2023-10-08T12:22:10;103145.00;;;20.86;100.00
36726;BME280;44936;52.086;5.150;2023-10-08T12:24:40;103161.78;;;21.09;100.00
36726;BME280;44936;52.086;5.150;2023-10-08T12:27:10;103148.41;;;21.17;100.00
36726;BME280;44936;52.086;5.150;2023-10-08T12:29:36;103122.59;;;21.17;100.00
36726;BME280;44936;52.086;5.150;2023-10-08T12:32:22;103157.31;;;21.11;100.00
36726;BME280;44936;52.086;5.150;2023-10-08T12:34:54;103149.47;;;20.69;100.00
36726;BME280;44936;52.086;5.150;2023-10-08T12:37:20;103148.56;;;20.80;100.00
36726;BME280;44936;52.086;5.150;2023-10-08T12:39:47;103166.16;;;21.26;100.00
36726;BME280;44936;52.086;5.150;2023-10-08T12:42:26;103154.81;;;20.65;100.00
36726;BME280;44936;52.086;5.150;2023-10-08T12:47:56;103150.31;;;20.87;100.00
36726;BME280;44936;52.086;5.150;2023-10-08T12:50:26;103172.34;;;21.43;100.00
36726;BME280;44936;52.086;5.150;2023-10-08T12:53:10;103111.97;;;21.10;100.00
36726;BME280;44936;52.086;5.150;2023-10-08T12:55:37;103147.41;;;21.47;100.00
36726;BME280;44936;52.086;5.150;2023-10-08T12:58:07;103122.50;;;21.48;100.00
36726;BME280;44936;52.086;5.150;2023-10-08T13:00:38;103096.91;;;20.98;100.00
36726;BME280;44936;52.086;5.150;2023-10-08T13:03:06;103110.19;;;21.10;100.00
36726;BME280;44936;52.086;5.150;2023-10-08T13:05:43;103122.78;;;20.72;100.00
36726;BME280;44936;52.086;5.150;2023-10-08T13:08:10;103120.16;;;20.61;100.00
36726;BME280;44936;52.086;5.150;2023-10-08T13:10:39;103105.00;;;20.78;100.00
36726;BME280;44936;52.086;5.150;2023-10-08T13:13:06;103087.31;;;20.51;100.00